Terminal Aerodrome Forecast
Issued by NWS Jackson, MS

Current Version | Previous Version | Text Only | Print | Product List | Glossary On
Versions: 1 2 3 4 5 6 7 8 9 10 11 12 13
188
FTUS44 KJAN 272359
TAFGLH
TAF
KGLH 272359Z 2800/2824 13008KT P6SM SCT008 BKN015
     FM280200 14012KT P6SM SCT008 BKN015
     FM280600 18010KT 5SM BR OVC007
     FM281500 19015KT P6SM BKN015 OVC025
     FM281800 19012G20KT P6SM BKN025 BKN050=

USA.gov is the U.S. government's official web portal to all federal, state and local government web resources and services.